Time;durP1;ratioP1;P1;durP2;ratioP2;P2;SDS_P1;SDS_P2;PMS_P1;PMS_P2;Temp;Humidity;BMP_temperature;BMP_pressure;BME280_temperature;BME280_humidity;BME280_pressure;Samples;Min_cycle;Max_cycle;Signal;HPM_P1;HPM_P2
2023/11/14 00:04:08;;;;;;;7.68;1.70;;;;;;;9.83;62.07;98874.00;10515112;28;20475;-63
2023/11/14 00:09:10;;;;;;;5.28;1.38;;;;;;;9.74;61.98;98885.09;10510619;28;20523;-63
2023/11/14 00:14:12;;;;;;;3.28;1.70;;;;;;;9.76;62.11;98906.69;10510673;28;20226;-63
2023/11/14 00:19:15;;;;;;;5.10;2.10;;;;;;;9.78;62.17;98883.91;10511642;28;20384;-63
2023/11/14 00:24:17;;;;;;;4.53;1.38;;;;;;;9.76;62.08;98893.66;10511973;28;20068;-63
2023/11/14 00:29:19;;;;;;;7.40;2.00;;;;;;;9.70;62.30;98910.59;10495108;28;20062;-63
2023/11/14 00:34:22;;;;;;;5.10;1.00;;;;;;;9.71;62.26;98924.50;10508830;28;20042;-63
2023/11/14 00:39:24;;;;;;;6.30;1.63;;;;;;;9.80;62.36;98910.75;10510788;28;20531;-63
2023/11/14 00:44:26;;;;;;;6.18;2.22;;;;;;;9.84;62.22;98883.47;10511838;28;20470;-63
2023/11/14 00:49:28;;;;;;;7.85;1.50;;;;;;;9.71;62.38;98880.13;10495128;28;20137;-63
2023/11/14 00:54:32;;;;;;;5.65;2.05;;;;;;;9.65;62.38;98892.63;10493900;28;20051;-63
2023/11/14 00:59:34;;;;;;;5.45;2.03;;;;;;;9.59;62.64;98889.59;10515229;28;20113;-63
2023/11/14 01:04:38;;;;;;;12.40;2.15;;;;;;;9.68;62.55;98888.16;10519434;28;20127;-63
2023/11/14 01:09:40;;;;;;;7.82;1.50;;;;;;;9.55;62.61;98902.06;10500567;28;20040;-64
2023/11/14 01:14:42;;;;;;;11.95;2.17;;;;;;;9.54;62.62;98895.16;10501345;28;20530;-63
2023/11/14 01:19:45;;;;;;;7.70;1.60;;;;;;;9.54;62.80;98897.75;10500861;28;20121;-64
2023/11/14 01:24:47;;;;;;;8.65;2.80;;;;;;;9.50;62.82;98890.28;10502671;28;20047;-64
2023/11/14 01:29:50;;;;;;;5.45;1.63;;;;;;;9.53;62.91;98895.28;10499956;28;20133;-64
2023/11/14 01:34:52;;;;;;;5.75;2.00;;;;;;;9.51;62.74;98895.38;10500344;28;20295;-64
2023/11/14 01:39:54;;;;;;;4.60;1.77;;;;;;;9.53;62.65;98908.31;10520295;28;20055;-64
2023/11/14 01:44:56;;;;;;;8.45;1.80;;;;;;;9.61;62.62;98916.44;10498251;28;20570;-64
2023/11/14 01:49:59;;;;;;;7.75;2.05;;;;;;;9.68;62.58;98909.03;10500205;28;20105;-64
2023/11/14 01:55:01;;;;;;;4.93;2.08;;;;;;;9.56;62.70;98908.94;10515049;28;20056;-64
2023/11/14 02:00:06;;;;;;;7.28;1.98;;;;;;;9.58;62.50;98894.00;10513872;28;20056;-65
2023/11/14 02:05:17;;;;;;;2.53;1.10;;;;;;;9.54;62.80;98900.38;10517461;28;20063;-64
2023/11/14 02:10:20;;;;;;;9.30;2.55;;;;;;;9.47;62.92;98893.09;10515104;28;20036;-64
2023/11/14 02:15:22;;;;;;;7.78;1.70;;;;;;;9.49;63.01;98894.66;10517829;28;20505;-64
2023/11/14 02:20:24;;;;;;;5.03;1.70;;;;;;;9.45;63.17;98908.88;10514797;28;20044;-64
2023/11/14 02:25:26;;;;;;;8.35;2.28;;;;;;;9.39;63.28;98911.94;10516223;28;20036;-64
2023/11/14 02:30:28;;;;;;;6.68;1.88;;;;;;;9.44;63.10;98930.69;10514663;28;20059;-64
2023/11/14 02:35:30;;;;;;;5.78;1.45;;;;;;;9.43;63.04;98947.31;10500681;28;20530;-64
2023/11/14 02:40:32;;;;;;;9.02;1.75;;;;;;;9.51;62.99;98950.19;10514145;28;20044;-64
2023/11/14 02:45:35;;;;;;;8.68;2.10;;;;;;;9.49;62.79;98954.69;10496839;28;20052;-64
2023/11/14 02:50:53;;;;;;;8.00;2.03;;;;;;;9.54;62.72;98951.75;10480956;28;20052;-64
2023/11/14 02:55:55;;;;;;;7.20;2.58;;;;;;;9.49;62.86;98952.09;10496105;28;20121;-64
2023/11/14 03:00:58;;;;;;;4.30;1.70;;;;;;;9.54;62.67;98951.75;10514404;28;20055;-64
2023/11/14 03:06:03;;;;;;;7.13;2.25;;;;;;;9.60;62.55;98946.94;10497901;28;20125;-64
2023/11/14 03:11:05;;;;;;;4.60;1.67;;;;;;;9.58;62.67;98956.63;10515410;28;20075;-64
2023/11/14 03:16:13;;;;;;;6.03;1.65;;;;;;;9.62;62.31;98959.88;10515607;28;20047;-64
2023/11/14 03:21:15;;;;;;;6.43;1.45;;;;;;;9.58;62.44;98961.84;10514929;28;20791;-64
2023/11/14 03:26:17;;;;;;;9.00;2.33;;;;;;;9.62;62.39;98972.94;10514183;28;20036;-64
2023/11/14 03:31:23;;;;;;;3.40;1.48;;;;;;;9.54;62.33;98999.56;10514709;28;20050;-63
2023/11/14 03:36:25;;;;;;;5.03;1.75;;;;;;;9.59;62.15;98994.03;10514714;28;20394;-64
2023/11/14 03:41:28;;;;;;;6.82;1.85;;;;;;;9.59;62.12;99005.31;10513416;28;20515;-64
2023/11/14 03:46:30;;;;;;;5.88;1.90;;;;;;;9.55;62.33;98992.56;10497488;28;20047;-64
2023/11/14 03:51:32;;;;;;;5.90;2.35;;;;;;;9.58;62.31;98994.97;10494027;28;20052;-64
2023/11/14 03:56:34;;;;;;;4.30;1.23;;;;;;;9.52;62.51;98992.81;10496699;28;20075;-64
2023/11/14 04:01:36;;;;;;;7.10;1.70;;;;;;;9.55;62.42;98985.59;10495335;28;20129;-65
2023/11/14 04:06:38;;;;;;;9.90;2.83;;;;;;;9.60;62.06;98991.31;10495084;28;20492;-64
2023/11/14 04:11:47;;;;;;;9.00;2.53;;;;;;;9.62;62.14;98994.66;10515437;28;20142;-62
2023/11/14 04:16:50;;;;;;;6.82;1.95;;;;;;;9.67;62.07;98986.50;10495158;28;20143;-62
2023/11/14 04:21:52;;;;;;;7.22;2.35;;;;;;;9.67;62.06;98983.91;10496342;28;20385;-62
2023/11/14 04:26:54;;;;;;;6.07;1.90;;;;;;;9.67;62.20;98990.94;10495062;28;20032;-62
2023/11/14 04:31:57;;;;;;;8.85;2.53;;;;;;;9.81;61.91;98991.59;10513596;28;20700;-62
2023/11/14 04:36:59;;;;;;;7.88;1.52;;;;;;;9.75;61.62;98992.03;10519437;28;20052;-62
2023/11/14 04:42:02;;;;;;;7.43;2.53;;;;;;;9.95;61.78;99001.06;10522451;28;20047;-62
2023/11/14 04:47:05;;;;;;;5.80;1.45;;;;;;;10.03;61.55;98990.91;10485960;28;20040;-62
2023/11/14 04:52:08;;;;;;;8.50;1.95;;;;;;;10.09;61.43;98988.69;10522576;28;20176;-62
2023/11/14 04:57:10;;;;;;;6.00;2.05;;;;;;;10.06;61.07;99001.09;10519100;28;20173;-62
2023/11/14 05:02:12;;;;;;;5.43;2.10;;;;;;;10.15;61.12;99003.06;10501646;28;20458;-62
2023/11/14 05:07:14;;;;;;;8.35;2.40;;;;;;;10.16;61.34;98995.13;10521350;28;20733;-62
2023/11/14 05:12:16;;;;;;;14.07;3.40;;;;;;;10.14;61.32;98997.00;10518861;28;20050;-62
2023/11/14 05:17:18;;;;;;;17.33;4.65;;;;;;;10.16;61.28;98996.88;10521059;28;20052;-61
2023/11/14 05:22:20;;;;;;;7.30;2.17;;;;;;;10.16;61.63;99000.34;10519630;28;20043;-62
2023/11/14 05:27:22;;;;;;;7.43;2.75;;;;;;;10.17;61.49;99001.19;10517224;28;20113;-62
2023/11/14 05:32:25;;;;;;;7.97;2.35;;;;;;;10.21;61.68;99018.31;10519776;28;20425;-61
2023/11/14 05:37:28;;;;;;;7.07;2.45;;;;;;;10.30;61.61;98997.56;10518811;28;20649;-62
2023/11/14 05:42:29;;;;;;;6.78;1.85;;;;;;;10.32;61.45;99020.94;10519043;28;20495;-62
2023/11/14 05:47:32;;;;;;;7.03;2.30;;;;;;;10.30;61.33;99009.78;10518000;28;20504;-63
2023/11/14 05:52:34;;;;;;;7.00;2.15;;;;;;;10.34;61.61;99021.66;10519083;28;20590;-62
2023/11/14 05:57:36;;;;;;;9.80;1.73;;;;;;;10.42;61.53;99038.47;10500247;28;20080;-63
2023/11/14 06:02:38;;;;;;;6.22;2.35;;;;;;;10.50;61.40;99035.31;10520038;28;20389;-62
2023/11/14 06:07:40;;;;;;;8.00;1.80;;;;;;;10.61;61.26;98993.50;10517333;28;20054;-62
2023/11/14 06:12:43;;;;;;;5.15;2.03;;;;;;;10.64;61.37;99001.13;10483692;28;20070;-62
2023/11/14 06:17:45;;;;;;;11.43;2.45;;;;;;;10.62;61.23;99013.50;10515644;28;20047;-62
2023/11/14 06:22:50;;;;;;;4.13;1.38;;;;;;;10.65;61.21;99010.63;10515153;28;20047;-62
2023/11/14 06:27:52;;;;;;;3.28;1.73;;;;;;;10.70;61.16;99015.53;10515476;28;20051;-62
2023/11/14 06:32:54;;;;;;;5.25;1.60;;;;;;;10.76;61.05;99015.91;10510248;28;20456;-62
2023/11/14 06:37:56;;;;;;;16.35;3.05;;;;;;;10.79;61.00;99036.59;10515441;28;20047;-62
2023/11/14 06:42:58;;;;;;;3.58;1.70;;;;;;;10.81;60.91;99050.38;10515357;28;20147;-61
2023/11/14 06:48:00;;;;;;;8.77;1.40;;;;;;;10.88;60.75;99054.22;10514093;28;20164;-62
2023/11/14 06:53:02;;;;;;;6.68;2.05;;;;;;;10.83;60.63;99048.47;10513685;28;20051;-63
2023/11/14 06:58:05;;;;;;;6.50;2.15;;;;;;;10.91;60.71;99063.63;10511095;28;20040;-63
2023/11/14 07:03:08;;;;;;;5.68;1.75;;;;;;;10.92;60.65;99058.28;10515044;28;20062;-62
2023/11/14 07:08:10;;;;;;;6.88;1.77;;;;;;;10.88;60.33;99042.91;10515918;28;20161;-62
2023/11/14 07:13:12;;;;;;;5.32;2.17;;;;;;;11.07;60.15;99041.44;10514630;28;20064;-62
2023/11/14 07:18:14;;;;;;;7.07;1.77;;;;;;;11.06;60.00;99055.50;10513316;28;20042;-63
2023/11/14 07:23:17;;;;;;;7.53;2.50;;;;;;;11.04;60.00;99070.47;10503753;28;20047;-61
2023/11/14 07:28:19;;;;;;;6.72;1.40;;;;;;;11.14;60.17;99087.13;10509091;28;20047;-62
2023/11/14 07:33:21;;;;;;;5.22;1.65;;;;;;;11.23;59.35;99073.34;10505249;28;20050;-62
2023/11/14 07:38:23;;;;;;;5.78;1.75;;;;;;;11.66;59.46;99101.50;10507022;28;20143;-62
2023/11/14 07:43:26;;;;;;;3.35;1.20;;;;;;;11.84;58.73;99085.19;10507530;28;20058;-62
2023/11/14 07:48:30;;;;;;;6.55;2.20;;;;;;;11.81;58.46;99132.56;10507132;28;20044;-63
2023/11/14 07:53:32;;;;;;;4.80;1.33;;;;;;;11.72;58.83;99129.84;10512850;28;20140;-68
2023/11/14 07:58:34;;;;;;;5.90;2.40;;;;;;;11.72;58.85;99086.13;10508580;28;20055;-68
2023/11/14 08:03:36;;;;;;;4.45;1.88;;;;;;;11.70;58.81;99087.22;10492490;28;20415;-68
2023/11/14 08:08:39;;;;;;;4.25;1.40;;;;;;;11.60;59.16;99081.84;10514552;28;20048;-68
2023/11/14 08:13:41;;;;;;;4.18;1.92;;;;;;;11.67;59.17;99069.09;10519483;28;20059;-68
2023/11/14 08:18:44;;;;;;;5.28;2.28;;;;;;;11.70;59.25;99066.25;10522021;28;20044;-68
2023/11/14 08:23:45;;;;;;;3.28;1.40;;;;;;;11.67;58.86;99095.28;10518437;28;20048;-68
2023/11/14 08:28:48;;;;;;;5.20;2.15;;;;;;;11.70;59.11;99081.97;10517704;28;20120;-68
2023/11/14 08:33:51;;;;;;;8.02;3.08;;;;;;;11.68;59.17;99068.16;10488485;28;20102;-68
2023/11/14 08:38:53;;;;;;;9.30;2.00;;;;;;;11.81;58.99;99095.06;10520982;28;20071;-68
2023/11/14 08:43:56;;;;;;;4.05;1.70;;;;;;;11.95;58.62;99115.78;10505110;28;20087;-68
2023/11/14 08:48:58;;;;;;;9.52;2.97;;;;;;;12.03;58.30;99121.25;10504077;28;20054;-68
2023/11/14 08:54:01;;;;;;;3.63;2.08;;;;;;;12.02;58.44;99109.13;10522490;28;20048;-69
2023/11/14 08:59:03;;;;;;;4.07;2.00;;;;;;;11.94;58.08;99082.69;10502872;28;20598;-70
2023/11/14 09:04:05;;;;;;;4.40;1.10;;;;;;;12.06;58.40;99097.44;10497897;28;20055;-70
2023/11/14 09:09:07;;;;;;;5.57;1.52;;;;;;;12.10;58.06;99083.13;10512875;28;20051;-69
2023/11/14 09:14:09;;;;;;;6.07;1.60;;;;;;;12.17;58.31;99073.00;10514610;28;20129;-68
2023/11/14 09:19:12;;;;;;;5.45;1.10;;;;;;;12.17;57.74;99086.09;10519942;28;20036;-68
2023/11/14 09:24:14;;;;;;;6.07;1.95;;;;;;;11.98;58.17;99105.06;10520645;28;20044;-68
2023/11/14 09:29:16;;;;;;;4.70;1.02;;;;;;;11.80;58.93;99115.19;10520070;28;20046;-69
2023/11/14 09:34:18;;;;;;;3.05;1.02;;;;;;;11.90;59.00;99110.06;10521424;28;20048;-68
2023/11/14 09:39:20;;;;;;;4.18;1.20;;;;;;;11.90;59.46;99110.06;10520454;28;20504;-68
2023/11/14 09:44:28;;;;;;;6.00;1.85;;;;;;;11.90;59.50;99091.72;10502328;28;20481;-68
2023/11/14 09:49:30;;;;;;;5.25;1.50;;;;;;;11.76;60.07;99091.97;10519931;28;20044;-68
2023/11/14 09:54:33;;;;;;;8.40;1.80;;;;;;;11.81;60.15;99098.50;10518983;28;20349;-69
2023/11/14 09:59:41;;;;;;;4.25;1.85;;;;;;;12.01;59.86;99112.66;10516282;28;20427;-68
2023/11/14 10:04:43;;;;;;;6.07;1.42;;;;;;;12.00;59.89;99126.75;10519490;28;20044;-69
2023/11/14 10:09:46;;;;;;;5.80;2.00;;;;;;;12.02;59.90;99130.06;10516180;28;20043;-69
2023/11/14 10:14:48;;;;;;;5.50;1.90;;;;;;;12.17;59.40;99120.19;10519033;28;20048;-69
2023/11/14 10:20:00;;;;;;;6.22;1.67;;;;;;;12.23;58.55;99115.28;10518329;28;20047;-69
2023/11/14 10:25:03;;;;;;;10.52;2.40;;;;;;;12.12;58.84;99104.81;10519013;28;20058;-69
2023/11/14 10:30:06;;;;;;;5.32;1.50;;;;;;;12.20;58.71;99099.78;10518024;28;20071;-70
2023/11/14 10:35:18;;;;;;;7.65;1.67;;;;;;;12.34;57.98;99081.19;10516122;28;20048;-69
2023/11/14 10:40:20;;;;;;;6.05;1.88;;;;;;;12.39;58.00;99068.56;10517639;28;20382;-69
2023/11/14 10:45:22;;;;;;;6.93;2.22;;;;;;;12.47;57.87;99055.66;10516917;28;20044;-70
2023/11/14 10:50:26;;;;;;;9.93;2.00;;;;;;;12.61;57.77;99044.03;10518079;28;20089;-70
2023/11/14 10:55:28;;;;;;;6.80;2.17;;;;;;;12.52;57.81;99060.50;10514923;28;20499;-71
2023/11/14 11:00:32;;;;;;;9.43;1.95;;;;;;;12.70;58.08;99036.25;10516167;28;20515;-69
2023/11/14 11:05:34;;;;;;;5.25;1.73;;;;;;;12.90;57.67;99024.09;10516351;28;20104;-70
2023/11/14 11:10:37;;;;;;;5.78;1.38;;;;;;;13.05;57.18;99025.44;10515930;28;20059;-69
2023/11/14 11:15:46;;;;;;;5.53;2.22;;;;;;;12.92;57.08;99023.00;10516389;28;20067;-69
2023/11/14 11:20:50;;;;;;;6.50;1.80;;;;;;;13.06;57.03;99021.03;10517714;28;20325;-69
2023/11/14 11:26:13;;;;;;;6.10;1.55;;;;;;;13.01;56.12;99002.19;10494924;28;20043;-69
2023/11/14 11:31:16;;;;;;;6.93;1.65;;;;;;;13.20;56.74;98982.13;10498325;28;20040;-69
2023/11/14 11:36:21;;;;;;;9.20;2.92;;;;;;;13.55;56.04;98985.22;10515984;28;20066;-68
2023/11/14 11:41:25;;;;;;;4.90;1.80;;;;;;;13.55;55.45;98987.03;10515979;28;20055;-68
2023/11/14 11:46:35;;;;;;;6.15;1.67;;;;;;;13.44;54.86;98985.31;10480848;28;20492;-69
2023/11/14 11:51:48;;;;;;;6.23;2.30;;;;;;;13.03;55.33;98993.22;10515124;28;20318;-69
2023/11/14 11:57:11;;;;;;;2.55;1.20;;;;;;;13.04;55.17;98986.19;10513802;28;20048;-69
2023/11/14 12:02:16;;;;;;;4.50;1.65;;;;;;;13.08;55.27;98975.31;10515247;28;20036;-68
2023/11/14 12:07:19;;;;;;;8.65;2.13;;;;;;;13.26;55.04;98967.66;10512856;28;20452;-69
2023/11/14 12:12:21;;;;;;;10.13;2.40;;;;;;;13.29;55.27;98949.03;10513174;28;20092;-69
2023/11/14 12:17:24;;;;;;;5.25;1.23;;;;;;;13.30;54.55;98953.28;10430718;28;20130;-68
2023/11/14 12:22:29;;;;;;;8.60;2.13;;;;;;;13.31;54.74;98955.78;10429504;28;20045;-69
2023/11/14 12:27:32;;;;;;;5.50;1.83;;;;;;;13.29;55.54;98947.19;10431690;28;20171;-68
2023/11/14 12:32:36;;;;;;;4.43;1.45;;;;;;;13.24;54.26;98938.06;10446147;28;20497;-69
2023/11/14 12:37:38;;;;;;;3.00;1.40;;;;;;;13.46;54.88;98924.75;10431156;28;20048;-69
2023/11/14 12:42:40;;;;;;;5.90;1.67;;;;;;;13.51;54.64;98914.69;10430442;28;20052;-69
2023/11/14 12:47:44;;;;;;;3.85;1.35;;;;;;;13.42;54.51;98912.84;10431885;28;20402;-69
2023/11/14 12:52:46;;;;;;;3.05;1.63;;;;;;;13.40;54.77;98904.25;10429766;28;20238;-69
2023/11/14 12:57:48;;;;;;;2.88;1.00;;;;;;;13.39;54.70;98910.50;10437506;28;20041;-69
2023/11/14 13:02:50;;;;;;;6.07;1.30;;;;;;;13.35;54.18;98893.34;10437150;28;20307;-70
2023/11/14 13:07:55;;;;;;;4.07;1.40;;;;;;;13.18;54.32;98892.19;10454300;28;20053;-70
2023/11/14 13:12:58;;;;;;;3.05;1.35;;;;;;;13.12;54.80;98892.72;10447406;28;20539;-69
2023/11/14 13:18:03;;;;;;;8.13;1.50;;;;;;;13.13;54.97;98883.84;10517407;28;20098;-68
2023/11/14 13:23:07;;;;;;;4.20;1.60;;;;;;;13.16;54.59;98873.09;10517773;28;20055;-70
2023/11/14 13:28:09;;;;;;;3.78;1.10;;;;;;;13.15;54.90;98870.63;10512556;28;20048;-69
2023/11/14 13:33:12;;;;;;;3.78;1.65;;;;;;;12.95;54.18;98870.53;10508475;28;20729;-70
2023/11/14 13:38:14;;;;;;;3.53;1.13;;;;;;;12.94;54.39;98863.59;10515624;28;20043;-71
2023/11/14 13:43:16;;;;;;;3.13;1.10;;;;;;;12.91;54.43;98850.78;10517115;28;20047;-70
2023/11/14 13:48:19;;;;;;;3.33;1.15;;;;;;;12.93;54.73;98851.47;10517852;28;20522;-70
2023/11/14 13:53:22;;;;;;;2.63;1.20;;;;;;;12.71;55.15;98862.16;10511567;28;20322;-71
2023/11/14 13:58:24;;;;;;;4.15;1.63;;;;;;;12.80;55.29;98850.03;10512051;28;21616;-69
2023/11/14 14:03:26;;;;;;;3.10;1.67;;;;;;;12.96;55.21;98845.13;10494145;28;20101;-70
2023/11/14 14:08:29;;;;;;;5.88;1.58;;;;;;;12.83;54.96;98845.34;10492863;28;20115;-70
2023/11/14 14:13:31;;;;;;;2.95;1.02;;;;;;;12.89;55.32;98844.81;10477077;28;20055;-69
2023/11/14 14:18:34;;;;;;;3.92;1.13;;;;;;;12.93;55.17;98827.84;10490179;28;20563;-70
2023/11/14 14:23:36;;;;;;;3.47;1.80;;;;;;;12.88;55.38;98821.34;10514104;28;20036;-70
2023/11/14 14:28:39;;;;;;;2.95;1.08;;;;;;;12.90;55.46;98807.09;10515667;28;20507;-70
2023/11/14 14:33:42;;;;;;;3.42;1.65;;;;;;;12.88;55.27;98809.03;10517527;28;20059;-69
2023/11/14 14:38:47;;;;;;;4.13;1.30;;;;;;;12.82;55.56;98799.06;10515711;28;20431;-69
2023/11/14 14:43:52;;;;;;;3.58;1.20;;;;;;;12.84;55.14;98791.91;10517591;28;20376;-69
2023/11/14 14:48:54;;;;;;;2.83;1.00;;;;;;;12.66;55.59;98785.63;10516347;28;20048;-71
2023/11/14 14:53:56;;;;;;;2.42;0.90;;;;;;;12.75;55.50;98795.34;10515746;28;20620;-69
2023/11/14 14:58:58;;;;;;;1.35;0.70;;;;;;;12.78;55.66;98774.06;10516020;28;20454;-70
2023/11/14 15:04:01;;;;;;;1.00;0.85;;;;;;;12.80;55.35;98764.25;10514389;28;20572;-68
2023/11/14 15:09:03;;;;;;;2.40;1.15;;;;;;;12.73;55.48;98759.69;10514512;28;20066;-69
2023/11/14 15:14:05;;;;;;;6.88;1.77;;;;;;;12.79;55.38;98749.50;10514071;28;20113;-69
2023/11/14 15:19:08;;;;;;;3.85;1.30;;;;;;;12.70;55.60;98739.00;10513428;28;20055;-69
2023/11/14 15:24:11;;;;;;;2.45;0.85;;;;;;;12.57;55.39;98733.97;10512511;28;20485;-69
2023/11/14 15:29:13;;;;;;;2.22;0.93;;;;;;;12.63;55.74;98737.84;10498693;28;20079;-69
2023/11/14 15:34:15;;;;;;;2.20;0.90;;;;;;;12.53;56.04;98729.97;10513010;28;20424;-68
2023/11/14 15:39:17;;;;;;;1.10;0.63;;;;;;;12.56;56.18;98711.31;10508656;28;20384;-69
2023/11/14 15:44:19;;;;;;;0.88;0.70;;;;;;;12.42;57.08;98722.19;10494779;28;20044;-68
2023/11/14 15:49:21;;;;;;;1.33;0.80;;;;;;;12.23;58.14;98706.34;10514508;28;20089;-69
2023/11/14 15:54:23;;;;;;;1.77;0.93;;;;;;;12.05;59.32;98711.34;10513046;28;20047;-68
2023/11/14 15:59:25;;;;;;;1.92;1.00;;;;;;;12.02;59.54;98705.56;10510718;28;20487;-64
2023/11/14 16:04:27;;;;;;;4.30;0.77;;;;;;;11.98;59.86;98704.16;10495482;28;20353;-64
2023/11/14 16:09:30;;;;;;;0.75;0.60;;;;;;;11.96;60.17;98706.06;10508495;28;20134;-65
2023/11/14 16:14:34;;;;;;;1.40;0.45;;;;;;;11.68;61.64;98696.25;10510424;28;20071;-66
2023/11/14 16:19:36;;;;;;;1.40;0.70;;;;;;;11.63;61.36;98708.91;10514664;28;20055;-66
2023/11/14 16:24:39;;;;;;;0.98;0.40;;;;;;;11.50;62.49;98687.31;10515533;28;20048;-65
2023/11/14 16:29:41;;;;;;;1.48;0.38;;;;;;;11.49;62.23;98690.88;10515999;28;20480;-65
2023/11/14 16:34:43;;;;;;;1.05;0.60;;;;;;;11.39;62.75;98703.06;10523411;28;20048;-65
2023/11/14 16:39:45;;;;;;;0.70;0.35;;;;;;;11.37;62.78;98705.00;10522310;28;20146;-65
2023/11/14 16:44:47;;;;;;;0.60;0.40;;;;;;;11.28;63.10;98706.56;10522132;28;20139;-65
2023/11/14 16:49:50;;;;;;;3.95;1.58;;;;;;;11.17;63.94;98704.81;10522573;28;20135;-65
2023/11/14 16:54:51;;;;;;;3.03;1.17;;;;;;;11.27;63.65;98712.78;10519834;28;20048;-64
2023/11/14 16:59:53;;;;;;;1.50;1.00;;;;;;;11.23;63.71;98708.75;10503522;28;20044;-64
2023/11/14 17:04:56;;;;;;;2.70;0.70;;;;;;;11.24;63.96;98706.00;10520263;28;20592;-65
2023/11/14 17:09:58;;;;;;;0.60;0.60;;;;;;;11.24;64.01;98705.16;10520330;28;20040;-64
2023/11/14 17:15:01;;;;;;;1.10;0.80;;;;;;;11.16;64.49;98684.84;10503042;28;20060;-65
2023/11/14 17:20:05;;;;;;;2.92;0.80;;;;;;;11.19;64.50;98673.31;10520947;28;20686;-66
2023/11/14 17:25:08;;;;;;;2.85;0.90;;;;;;;11.19;64.53;98668.88;10522328;28;20040;-64
2023/11/14 17:30:11;;;;;;;0.85;0.82;;;;;;;11.13;64.69;98663.34;10519925;28;20135;-64
2023/11/14 17:35:13;;;;;;;3.08;0.52;;;;;;;11.14;64.86;98638.84;10520283;28;20134;-64
2023/11/14 17:40:15;;;;;;;2.40;0.80;;;;;;;11.20;64.81;98633.09;10512756;28;20051;-64
2023/11/14 17:45:17;;;;;;;0.98;0.77;;;;;;;11.04;65.17;98625.69;10513719;28;20514;-64
2023/11/14 17:50:20;;;;;;;1.30;0.82;;;;;;;11.01;65.13;98641.59;10518385;28;20529;-65
2023/11/14 17:55:22;;;;;;;0.93;0.85;;;;;;;11.10;65.26;98643.50;10517978;28;20590;-65
2023/11/14 18:00:26;;;;;;;1.65;1.02;;;;;;;11.06;65.50;98623.78;10496700;28;20089;-65
2023/11/14 18:05:28;;;;;;;2.40;1.20;;;;;;;11.06;65.65;98630.78;10511863;28;20578;-65
2023/11/14 18:10:34;;;;;;;1.02;0.80;;;;;;;11.04;65.65;98612.59;10506606;28;20036;-65
2023/11/14 18:15:36;;;;;;;2.22;1.48;;;;;;;10.98;65.91;98597.38;10505405;28;20070;-65
2023/11/14 18:20:38;;;;;;;1.90;0.88;;;;;;;11.07;65.95;98588.78;10507432;28;20040;-63
2023/11/14 18:25:40;;;;;;;1.70;1.10;;;;;;;11.09;65.76;98579.03;10478708;28;20048;-64
2023/11/14 18:30:42;;;;;;;1.05;0.80;;;;;;;11.16;65.71;98579.34;10506761;28;20209;-64
2023/11/14 18:35:45;;;;;;;0.70;0.70;;;;;;;10.94;66.25;98582.91;10508911;28;20119;-64
2023/11/14 18:40:48;;;;;;;1.80;1.00;;;;;;;10.86;66.37;98574.84;10509215;28;20036;-64
2023/11/14 18:45:51;;;;;;;1.20;0.80;;;;;;;10.87;66.28;98573.88;10512747;28;20046;-64
2023/11/14 18:50:55;;;;;;;1.13;0.70;;;;;;;10.79;66.55;98565.00;10509899;28;20068;-64
2023/11/14 18:55:57;;;;;;;0.98;0.47;;;;;;;10.79;66.46;98552.75;10505935;28;20079;-65
2023/11/14 19:01:02;;;;;;;2.33;0.80;;;;;;;10.82;66.37;98556.91;10513415;28;20036;-64
2023/11/14 19:06:08;;;;;;;1.25;1.02;;;;;;;10.72;66.40;98535.09;10475178;28;20047;-64
2023/11/14 19:11:10;;;;;;;1.20;0.90;;;;;;;10.58;66.33;98546.69;10513511;28;20852;-64
2023/11/14 19:16:12;;;;;;;0.90;0.70;;;;;;;10.54;66.47;98539.22;10491776;28;20094;-65
2023/11/14 19:21:15;;;;;;;1.08;0.60;;;;;;;10.61;66.23;98549.03;10509837;28;20094;-65
2023/11/14 19:26:20;;;;;;;0.68;0.63;;;;;;;10.58;66.15;98545.84;10510025;28;20233;-65
2023/11/14 19:31:22;;;;;;;0.50;0.45;;;;;;;10.55;66.41;98546.94;10491849;28;20542;-65
2023/11/14 19:36:24;;;;;;;2.00;1.40;;;;;;;10.56;66.50;98550.38;10510898;28;20160;-65
2023/11/14 19:41:26;;;;;;;2.53;1.10;;;;;;;10.60;66.46;98544.78;10493943;28;20135;-64
2023/11/14 19:46:28;;;;;;;5.53;2.30;;;;;;;10.59;66.42;98552.72;10511869;28;20780;-64
2023/11/14 19:51:31;;;;;;;4.50;1.63;;;;;;;10.48;67.00;98562.28;10510855;28;20484;-65
2023/11/14 19:56:33;;;;;;;5.20;2.25;;;;;;;10.48;67.04;98556.25;10511022;28;20058;-64
2023/11/14 20:01:35;;;;;;;5.63;2.45;;;;;;;10.50;67.10;98570.00;10513240;28;20127;-64
2023/11/14 20:06:39;;;;;;;2.35;1.38;;;;;;;10.35;67.75;98558.16;10512325;28;20636;-64
2023/11/14 20:11:41;;;;;;;2.22;1.10;;;;;;;10.61;66.96;98566.50;10506789;28;20040;-65
2023/11/14 20:16:43;;;;;;;1.67;1.13;;;;;;;10.53;66.87;98577.59;10508863;28;20181;-64
2023/11/14 20:21:45;;;;;;;3.90;1.38;;;;;;;10.49;67.00;98584.84;10505589;28;20051;-64
2023/11/14 20:26:47;;;;;;;2.55;1.35;;;;;;;10.60;66.38;98611.91;10484381;28;20044;-65
2023/11/14 20:31:50;;;;;;;1.50;1.10;;;;;;;10.52;66.41;98609.94;10502625;28;20135;-64
2023/11/14 20:36:52;;;;;;;3.10;0.95;;;;;;;10.60;65.97;98625.81;10490069;28;20040;-65
2023/11/14 20:41:54;;;;;;;2.83;0.50;;;;;;;10.59;65.82;98639.84;10510327;28;20047;-64
2023/11/14 20:46:56;;;;;;;2.60;0.73;;;;;;;10.43;66.29;98662.94;10506661;28;20427;-65
2023/11/14 20:51:58;;;;;;;1.27;0.55;;;;;;;10.38;66.45;98658.06;10505881;28;20510;-65
2023/11/14 20:57:00;;;;;;;0.40;0.40;;;;;;;10.37;66.72;98668.63;10510778;28;20131;-65
2023/11/14 21:02:03;;;;;;;0.50;0.50;;;;;;;10.31;66.99;98700.47;10509253;28;20044;-66
2023/11/14 21:07:05;;;;;;;1.60;0.80;;;;;;;10.32;67.66;98730.88;10511810;28;20060;-66
2023/11/14 21:12:08;;;;;;;0.47;0.40;;;;;;;10.18;67.30;98731.94;10509485;28;20054;-66
2023/11/14 21:17:10;;;;;;;0.40;0.40;;;;;;;10.09;67.48;98752.72;10511065;28;20139;-66
2023/11/14 21:22:12;;;;;;;1.67;0.90;;;;;;;10.10;67.18;98770.06;10499859;28;20052;-65
2023/11/14 21:27:14;;;;;;;0.73;0.68;;;;;;;10.07;67.11;98791.19;10516369;28;20062;-64
2023/11/14 21:32:16;;;;;;;0.80;0.60;;;;;;;9.92;67.59;98793.19;10516295;28;20353;-66
2023/11/14 21:37:19;;;;;;;0.85;0.50;;;;;;;9.78;67.89;98819.50;10499423;28;20044;-66
2023/11/14 21:42:21;;;;;;;0.47;0.47;;;;;;;9.74;67.71;98836.31;10493107;28;20093;-64
2023/11/14 21:47:22;;;;;;;0.60;0.60;;;;;;;9.80;67.50;98859.38;10499948;28;20039;-66
2023/11/14 21:52:25;;;;;;;0.77;0.47;;;;;;;9.69;67.74;98868.94;10499636;28;20031;-65
2023/11/14 21:57:26;;;;;;;0.40;0.30;;;;;;;9.56;67.86;98890.66;10498357;28;20064;-66
2023/11/14 22:02:28;;;;;;;0.63;0.50;;;;;;;9.55;67.67;98891.63;10496674;28;20160;-64
2023/11/14 22:07:31;;;;;;;0.75;0.70;;;;;;;9.45;68.54;98898.44;10499194;28;20047;-64
2023/11/14 22:12:33;;;;;;;0.40;0.40;;;;;;;9.49;68.17;98905.09;10498187;28;20109;-64
2023/11/14 22:17:35;;;;;;;0.40;0.40;;;;;;;9.48;68.13;98913.88;10498083;28;20126;-64
2023/11/14 22:22:38;;;;;;;3.83;1.80;;;;;;;9.53;68.07;98917.00;10517792;28;20142;-64
2023/11/14 22:27:41;;;;;;;2.38;1.30;;;;;;;9.62;67.78;98923.34;10512992;28;20076;-64
2023/11/14 22:32:43;;;;;;;1.58;0.88;;;;;;;9.58;67.87;98935.75;10514361;28;20044;-64
2023/11/14 22:37:45;;;;;;;0.57;0.55;;;;;;;9.56;67.90;98939.44;10515441;28;20303;-64
2023/11/14 22:42:47;;;;;;;3.10;1.80;;;;;;;9.64;68.10;98944.94;10516672;28;20052;-64
2023/11/14 22:47:49;;;;;;;4.53;2.22;;;;;;;9.73;67.57;98959.16;10493497;28;20042;-64
2023/11/14 22:52:51;;;;;;;1.92;0.70;;;;;;;9.67;67.41;98963.03;10514958;28;20040;-64
2023/11/14 22:57:53;;;;;;;1.10;0.90;;;;;;;9.68;67.54;98984.75;10513767;28;20046;-64
2023/11/14 23:02:55;;;;;;;0.40;0.40;;;;;;;9.80;67.21;98987.31;10467162;28;20400;-64
2023/11/14 23:07:57;;;;;;;0.50;0.50;;;;;;;9.77;67.18;99003.19;10513757;28;20032;-64
2023/11/14 23:13:04;;;;;;;1.88;1.00;;;;;;;9.86;66.92;99004.31;10513266;28;20059;-64
2023/11/14 23:18:08;;;;;;;0.20;0.20;;;;;;;9.80;66.87;99028.25;10512260;28;20032;-64
2023/11/14 23:23:11;;;;;;;0.30;0.30;;;;;;;9.94;66.76;99035.94;10495007;28;20073;-64
2023/11/14 23:28:13;;;;;;;0.95;0.50;;;;;;;9.84;66.42;99041.00;10512632;28;20121;-64
2023/11/14 23:33:15;;;;;;;0.52;0.40;;;;;;;9.95;66.28;99063.75;10512861;28;20333;-64